Time;durP1;ratioP1;P1;durP2;ratioP2;P2;SDS_P1;SDS_P2;PMS_P1;PMS_P2;Temp;Humidity;BMP_temperature;BMP_pressure;BME280_temperature;BME280_humidity;BME280_pressure;Samples;Min_cycle;Max_cycle;Signal;HPM_P1;HPM_P2
2021/10/04 00:02:04;;;;;;;;;;;18.30;99.90;;;;;;5085223;28;19919;-77
2021/10/04 00:04:30;;;;;;;;;;;18.20;99.90;;;;;;5076815;28;20011;-77
2021/10/04 00:06:56;;;;;;;;;;;18.20;99.90;;;;;;5079409;28;19974;-77
2021/10/04 00:09:22;;;;;;;;;;;18.20;99.90;;;;;;5080110;28;19916;-77
2021/10/04 00:11:48;;;;;;;;;;;18.30;99.90;;;;;;5088419;28;20470;-77
2021/10/04 00:14:14;;;;;;;;;;;18.40;99.90;;;;;;5088018;28;19912;-77
2021/10/04 00:16:39;;;;;;;;;;;18.40;99.90;;;;;;5076522;28;19958;-77
2021/10/04 00:19:05;;;;;;;;;;;18.30;99.90;;;;;;5097444;28;19999;-78
2021/10/04 00:21:36;;;;;;;;;;;18.20;99.90;;;;;;5083800;28;20402;-78
2021/10/04 00:24:08;;;;;;;;;;;18.10;99.90;;;;;;5078663;28;19976;-78
2021/10/04 00:26:34;;;;;;;;;;;18.10;99.90;;;;;;5076602;28;19927;-78
2021/10/04 00:29:00;;;;;;;;;;;18.10;99.90;;;;;;5083276;28;20369;-78
2021/10/04 00:31:25;;;;;;;;;;;18.00;99.90;;;;;;5075279;28;19919;-77
2021/10/04 00:33:51;;;;;;;;;;;18.00;99.90;;;;;;5066121;28;19913;-77
2021/10/04 00:36:17;;;;;;;;;;;18.00;99.90;;;;;;5066814;28;19916;-77
2021/10/04 00:38:43;;;;;;;;;;;18.10;99.90;;;;;;5073317;28;20466;-78
2021/10/04 00:41:14;;;;;;;;;;;18.00;99.90;;;;;;5072684;28;19962;-78
2021/10/04 00:43:39;;;;;;;;;;;18.00;99.90;;;;;;5083658;28;20390;-77
2021/10/04 00:46:05;;;;;;;;;;;18.00;99.90;;;;;;5083695;28;19927;-78
2021/10/04 00:48:31;;;;;;;;;;;18.00;99.90;;;;;;5085902;28;19912;-78
2021/10/04 00:50:57;;;;;;;;;;;18.00;99.90;;;;;;5080684;28;19912;-78
2021/10/04 00:53:23;;;;;;;;;;;18.00;99.90;;;;;;5082351;28;19948;-78
2021/10/04 00:55:48;;;;;;;;;;;18.00;99.90;;;;;;5083506;28;19913;-78
2021/10/04 00:58:14;;;;;;;;;;;18.00;99.90;;;;;;5079213;28;19913;-78
2021/10/04 01:00:40;;;;;;;;;;;18.00;99.90;;;;;;5084941;28;19912;-78
2021/10/04 01:03:06;;;;;;;;;;;18.00;99.90;;;;;;5082176;28;19920;-78
2021/10/04 01:05:32;;;;;;;;;;;18.10;99.90;;;;;;5078261;28;19923;-78
2021/10/04 01:07:57;;;;;;;;;;;18.10;99.90;;;;;;5082372;28;20301;-78
2021/10/04 01:10:23;;;;;;;;;;;18.10;99.90;;;;;;5090159;28;19912;-78
2021/10/04 01:12:50;;;;;;;;;;;18.20;99.90;;;;;;5087425;28;19913;-79
2021/10/04 01:15:16;;;;;;;;;;;18.20;99.90;;;;;;5087528;28;19913;-78
2021/10/04 01:17:42;;;;;;;;;;;18.20;99.90;;;;;;5089850;28;19912;-78
2021/10/04 01:20:09;;;;;;;;;;;18.20;99.90;;;;;;5086380;28;19934;-79
2021/10/04 01:22:35;;;;;;;;;;;18.20;99.90;;;;;;5086302;28;19912;-81
2021/10/04 01:25:00;;;;;;;;;;;18.30;99.90;;;;;;5080215;28;19916;-78
2021/10/04 01:27:28;;;;;;;;;;;18.30;99.90;;;;;;5077437;28;20450;-78
2021/10/04 01:29:54;;;;;;;;;;;18.40;99.90;;;;;;5090681;28;19946;-78
2021/10/04 01:32:19;;;;;;;;;;;18.40;99.90;;;;;;5084951;28;20381;-78
2021/10/04 01:34:46;;;;;;;;;;;18.60;99.90;;;;;;5081382;28;19920;-78
2021/10/04 01:37:11;;;;;;;;;;;18.70;99.90;;;;;;5082171;28;19928;-78
2021/10/04 01:39:37;;;;;;;;;;;18.70;99.90;;;;;;5078561;28;19923;-78
2021/10/04 01:42:03;;;;;;;;;;;18.70;99.90;;;;;;5078493;28;19912;-79
2021/10/04 01:44:29;;;;;;;;;;;18.80;99.90;;;;;;5083162;28;19917;-79
2021/10/04 01:46:55;;;;;;;;;;;18.80;99.90;;;;;;5078793;28;20009;-78
2021/10/04 01:49:20;;;;;;;;;;;18.80;99.90;;;;;;5083737;28;20328;-78
2021/10/04 01:51:46;;;;;;;;;;;18.90;99.90;;;;;;5078979;28;20330;-79
2021/10/04 01:54:12;;;;;;;;;;;19.00;99.90;;;;;;5085179;28;19916;-79
2021/10/04 01:56:38;;;;;;;;;;;19.00;99.90;;;;;;5089888;28;19984;-79
2021/10/04 01:59:03;;;;;;;;;;;19.00;99.90;;;;;;5076806;28;19912;-79
2021/10/04 02:01:30;;;;;;;;;;;19.00;99.90;;;;;;5083166;28;19912;-79
2021/10/04 02:03:56;;;;;;;;;;;19.20;99.90;;;;;;5083504;28;20047;-79
2021/10/04 02:06:22;;;;;;;;;;;19.20;99.90;;;;;;5083495;28;19913;-79
2021/10/04 02:08:47;;;;;;;;;;;19.10;99.90;;;;;;5085294;28;19951;-79
2021/10/04 02:11:13;;;;;;;;;;;19.10;99.90;;;;;;5076220;28;19913;-79
2021/10/04 02:13:39;;;;;;;;;;;19.20;99.90;;;;;;5081104;28;19912;-79
2021/10/04 02:16:05;;;;;;;;;;;19.40;99.90;;;;;;5077371;28;19918;-78
2021/10/04 02:18:31;;;;;;;;;;;19.50;99.90;;;;;;5077917;28;19919;-78
2021/10/04 02:20:57;;;;;;;;;;;19.40;99.90;;;;;;5080334;28;19919;-78
2021/10/04 02:23:22;;;;;;;;;;;19.50;99.90;;;;;;5086838;28;20011;-78
2021/10/04 02:25:48;;;;;;;;;;;19.60;99.90;;;;;;5085549;28;19938;-78
2021/10/04 02:28:17;;;;;;;;;;;19.60;99.90;;;;;;5084334;28;19930;-78
2021/10/04 02:30:43;;;;;;;;;;;19.60;99.90;;;;;;5081822;28;19932;-79
2021/10/04 02:33:12;;;;;;;;;;;19.60;99.90;;;;;;5088999;28;20007;-79
2021/10/04 02:35:38;;;;;;;;;;;19.50;99.90;;;;;;5079565;28;19917;-79
2021/10/04 02:38:04;;;;;;;;;;;19.40;99.90;;;;;;5084203;28;19935;-78
2021/10/04 02:40:30;;;;;;;;;;;19.30;99.90;;;;;;5087039;28;19917;-78
2021/10/04 02:42:56;;;;;;;;;;;19.40;99.90;;;;;;5083998;28;20494;-78
2021/10/04 02:45:22;;;;;;;;;;;19.40;99.90;;;;;;5086565;28;19916;-78
2021/10/04 02:47:48;;;;;;;;;;;19.50;99.90;;;;;;5082528;28;19912;-77
2021/10/04 02:50:16;;;;;;;;;;;19.50;99.90;;;;;;5089632;28;19916;-78
2021/10/04 02:52:42;;;;;;;;;;;19.40;99.90;;;;;;5083458;28;19901;-78
2021/10/04 02:55:08;;;;;;;;;;;19.40;99.90;;;;;;5082479;28;19992;-79
2021/10/04 02:57:33;;;;;;;;;;;19.40;99.90;;;;;;5083235;28;19993;-79
2021/10/04 02:59:59;;;;;;;;;;;19.50;99.90;;;;;;5082213;28;19970;-78
2021/10/04 03:02:26;;;;;;;;;;;19.50;99.90;;;;;;5080530;28;20523;-78
2021/10/04 03:04:51;;;;;;;;;;;19.50;99.90;;;;;;5089424;28;19997;-78
2021/10/04 03:07:17;;;;;;;;;;;19.50;99.90;;;;;;5075613;28;19975;-78
2021/10/04 03:09:43;;;;;;;;;;;19.60;99.90;;;;;;5085716;28;19967;-79
2021/10/04 03:12:08;;;;;;;;;;;19.50;99.90;;;;;;5081297;28;19912;-78
2021/10/04 03:14:34;;;;;;;;;;;19.50;99.90;;;;;;5080706;28;19913;-78
2021/10/04 03:17:03;;;;;;;;;;;19.50;99.90;;;;;;5079994;28;20381;-78
2021/10/04 03:19:29;;;;;;;;;;;19.60;99.90;;;;;;5084485;28;19912;-78
2021/10/04 03:21:55;;;;;;;;;;;19.60;99.90;;;;;;5081920;28;20358;-78
2021/10/04 03:24:21;;;;;;;;;;;19.50;99.90;;;;;;5076573;28;19997;-79
2021/10/04 03:26:47;;;;;;;;;;;19.60;99.90;;;;;;5082481;28;19913;-78
2021/10/04 03:29:16;;;;;;;;;;;19.60;99.90;;;;;;5084165;28;19939;-78
2021/10/04 03:31:43;;;;;;;;;;;19.60;99.90;;;;;;5078197;28;20386;-78
2021/10/04 03:34:08;;;;;;;;;;;19.70;99.90;;;;;;5084559;28;19920;-79
2021/10/04 03:36:34;;;;;;;;;;;19.70;99.90;;;;;;5072482;28;20978;-78
2021/10/04 03:39:00;;;;;;;;;;;19.70;99.90;;;;;;5084054;28;19948;-78
2021/10/04 03:41:28;;;;;;;;;;;19.70;99.90;;;;;;5078469;28;19940;-78
2021/10/04 03:43:54;;;;;;;;;;;19.60;99.90;;;;;;5090717;28;19942;-79
2021/10/04 03:46:20;;;;;;;;;;;19.70;99.90;;;;;;5085789;28;20351;-78
2021/10/04 03:48:46;;;;;;;;;;;19.60;99.90;;;;;;5086388;28;19919;-79
2021/10/04 03:51:12;;;;;;;;;;;19.60;99.90;;;;;;5072944;28;19920;-78
2021/10/04 03:53:37;;;;;;;;;;;19.50;99.90;;;;;;5090010;28;19916;-78
2021/10/04 03:56:03;;;;;;;;;;;19.50;99.90;;;;;;5088220;28;19915;-78
2021/10/04 03:58:29;;;;;;;;;;;19.60;99.90;;;;;;5090031;28;19943;-78
2021/10/04 04:00:55;;;;;;;;;;;19.60;99.90;;;;;;5086826;28;19913;-79
2021/10/04 04:03:20;;;;;;;;;;;19.60;99.90;;;;;;5089962;28;20418;-78
2021/10/04 04:05:46;;;;;;;;;;;19.60;99.90;;;;;;5087567;28;19923;-78
2021/10/04 04:08:12;;;;;;;;;;;19.60;99.90;;;;;;5091041;28;20268;-78
2021/10/04 04:10:37;;;;;;;;;;;19.60;99.90;;;;;;5091496;28;20386;-78
2021/10/04 04:13:03;;;;;;;;;;;19.50;99.90;;;;;;5089286;28;19959;-78
2021/10/04 04:15:29;;;;;;;;;;;19.40;99.90;;;;;;5081893;28;19912;-78
2021/10/04 04:17:54;;;;;;;;;;;19.40;99.90;;;;;;5093144;28;19943;-78
2021/10/04 04:20:20;;;;;;;;;;;19.50;99.90;;;;;;5094772;28;19912;-78
2021/10/04 04:22:46;;;;;;;;;;;19.40;99.90;;;;;;5087008;28;19922;-77
2021/10/04 04:25:13;;;;;;;;;;;19.40;99.90;;;;;;5076642;28;19917;-78
2021/10/04 04:27:39;;;;;;;;;;;19.30;99.90;;;;;;5083421;28;19920;-78
2021/10/04 04:30:06;;;;;;;;;;;19.40;99.90;;;;;;5087245;28;19999;-78
2021/10/04 04:32:32;;;;;;;;;;;19.60;99.90;;;;;;5080384;28;19998;-78
2021/10/04 04:34:57;;;;;;;;;;;19.60;99.90;;;;;;5073944;28;20015;-78
2021/10/04 04:37:23;;;;;;;;;;;19.60;99.90;;;;;;5084713;28;20388;-78
2021/10/04 04:39:49;;;;;;;;;;;19.60;99.90;;;;;;5081472;28;20002;-79
2021/10/04 04:42:14;;;;;;;;;;;19.60;99.90;;;;;;5084049;28;20370;-78
2021/10/04 04:44:40;;;;;;;;;;;19.60;99.90;;;;;;5092347;28;19916;-78
2021/10/04 04:47:06;;;;;;;;;;;19.60;99.90;;;;;;5087502;28;19916;-78
2021/10/04 04:49:32;;;;;;;;;;;19.50;99.90;;;;;;5079072;28;20450;-79
2021/10/04 04:51:58;;;;;;;;;;;19.50;99.90;;;;;;5084754;28;19927;-78
2021/10/04 04:54:25;;;;;;;;;;;19.40;99.90;;;;;;5084855;28;19913;-78
2021/10/04 04:56:54;;;;;;;;;;;19.30;99.90;;;;;;5090698;28;19981;-78
2021/10/04 04:59:20;;;;;;;;;;;19.20;99.90;;;;;;5092908;28;19951;-78
2021/10/04 05:01:45;;;;;;;;;;;19.40;99.90;;;;;;5097306;28;19912;-79
2021/10/04 05:04:11;;;;;;;;;;;19.40;99.90;;;;;;5090571;28;19966;-78
2021/10/04 05:06:37;;;;;;;;;;;19.50;99.90;;;;;;5078541;28;19916;-79
2021/10/04 05:09:03;;;;;;;;;;;19.50;99.90;;;;;;5084491;28;19912;-78
2021/10/04 05:11:29;;;;;;;;;;;19.40;99.90;;;;;;5079499;28;19920;-78
2021/10/04 05:13:55;;;;;;;;;;;19.50;99.90;;;;;;5081429;28;19900;-78
2021/10/04 05:16:20;;;;;;;;;;;19.40;99.90;;;;;;5082810;28;19948;-78
2021/10/04 05:18:46;;;;;;;;;;;19.50;99.90;;;;;;5088562;28;19913;-78
2021/10/04 05:21:12;;;;;;;;;;;19.50;99.90;;;;;;5079902;28;19913;-78
2021/10/04 05:23:37;;;;;;;;;;;19.50;99.90;;;;;;5085496;28;20389;-80
2021/10/04 05:26:03;;;;;;;;;;;19.60;99.90;;;;;;5079402;28;19974;-79
2021/10/04 05:28:28;;;;;;;;;;;19.60;99.90;;;;;;5079749;28;19939;-79
2021/10/04 05:30:54;;;;;;;;;;;19.60;99.90;;;;;;5079349;28;19942;-79
2021/10/04 05:33:20;;;;;;;;;;;19.60;99.90;;;;;;5079601;28;19980;-79
2021/10/04 05:35:46;;;;;;;;;;;19.60;99.90;;;;;;5079535;28;19912;-78
2021/10/04 05:38:12;;;;;;;;;;;19.60;99.90;;;;;;5081736;28;19919;-78
2021/10/04 05:40:38;;;;;;;;;;;19.60;99.90;;;;;;5080348;28;19959;-78
2021/10/04 05:43:03;;;;;;;;;;;19.60;99.90;;;;;;5079358;28;19920;-78
2021/10/04 05:45:29;;;;;;;;;;;19.60;99.90;;;;;;5077527;28;19925;-78
2021/10/04 05:47:55;;;;;;;;;;;19.60;99.90;;;;;;5073343;28;19919;-78
2021/10/04 05:50:21;;;;;;;;;;;19.70;99.90;;;;;;5077383;28;20676;-78
2021/10/04 05:52:47;;;;;;;;;;;19.70;99.90;;;;;;5083273;28;19920;-78
2021/10/04 05:55:12;;;;;;;;;;;19.70;99.90;;;;;;5085910;28;19921;-78
2021/10/04 05:57:38;;;;;;;;;;;19.70;99.90;;;;;;5086379;28;19916;-78
2021/10/04 06:00:05;;;;;;;;;;;19.70;99.90;;;;;;5086214;28;19912;-78
2021/10/04 06:02:30;;;;;;;;;;;19.70;99.90;;;;;;5077719;28;19927;-78
2021/10/04 06:04:56;;;;;;;;;;;19.70;99.90;;;;;;5081253;28;19920;-78
2021/10/04 06:07:22;;;;;;;;;;;19.90;99.90;;;;;;5080520;28;19912;-78
2021/10/04 06:09:47;;;;;;;;;;;19.90;99.90;;;;;;5090837;28;19920;-78
2021/10/04 06:12:13;;;;;;;;;;;19.90;99.90;;;;;;5085252;28;19913;-77
2021/10/04 06:14:39;;;;;;;;;;;19.90;99.90;;;;;;5096636;28;19970;-78
2021/10/04 06:17:04;;;;;;;;;;;20.00;99.90;;;;;;5088365;28;19912;-78
2021/10/04 06:19:30;;;;;;;;;;;20.10;99.90;;;;;;5095939;28;19913;-78
2021/10/04 06:21:56;;;;;;;;;;;20.10;99.90;;;;;;5085269;28;19912;-78
2021/10/04 06:24:21;;;;;;;;;;;20.10;99.90;;;;;;5082532;28;19917;-78
2021/10/04 06:26:47;;;;;;;;;;;20.20;99.90;;;;;;5085769;28;19977;-78
2021/10/04 06:29:13;;;;;;;;;;;20.20;99.90;;;;;;5091379;28;19913;-78
2021/10/04 06:31:38;;;;;;;;;;;20.30;99.90;;;;;;5085146;28;22076;-77
2021/10/04 06:34:04;;;;;;;;;;;20.30;99.90;;;;;;5083797;28;19913;-78
2021/10/04 06:36:30;;;;;;;;;;;20.30;99.90;;;;;;5077965;28;19942;-78
2021/10/04 06:38:56;;;;;;;;;;;20.40;99.90;;;;;;5081647;28;19973;-78
2021/10/04 06:41:21;;;;;;;;;;;20.40;99.90;;;;;;5075472;28;19913;-79
2021/10/04 06:43:47;;;;;;;;;;;20.50;99.90;;;;;;5081637;28;19939;-78
2021/10/04 06:46:13;;;;;;;;;;;20.50;99.90;;;;;;5073630;28;19978;-78
2021/10/04 06:48:39;;;;;;;;;;;20.60;99.90;;;;;;5075817;28;19913;-78
2021/10/04 06:51:05;;;;;;;;;;;20.70;99.90;;;;;;5074606;28;19912;-78
2021/10/04 06:53:31;;;;;;;;;;;20.80;99.90;;;;;;5077311;28;19920;-78
2021/10/04 06:55:57;;;;;;;;;;;20.70;99.90;;;;;;5070785;28;19938;-79
2021/10/04 06:58:32;;;;;;;;;;;20.80;99.90;;;;;;5081132;28;19975;-78
2021/10/04 07:00:57;;;;;;;;;;;20.80;99.90;;;;;;5077735;28;20459;-78
2021/10/04 07:03:23;;;;;;;;;;;20.80;99.90;;;;;;5081251;28;19924;-78
2021/10/04 07:05:51;;;;;;;;;;;20.80;99.90;;;;;;5077672;28;19923;-78
2021/10/04 07:08:18;;;;;;;;;;;20.80;99.90;;;;;;5078424;28;19913;-79
2021/10/04 07:10:43;;;;;;;;;;;20.80;99.90;;;;;;5092866;28;20610;-79
2021/10/04 07:13:09;;;;;;;;;;;20.90;99.90;;;;;;5075059;28;19952;-79
2021/10/04 07:15:35;;;;;;;;;;;20.90;99.90;;;;;;5084764;28;20011;-78
2021/10/04 07:18:00;;;;;;;;;;;21.00;99.90;;;;;;5080772;28;19916;-78
2021/10/04 07:20:26;;;;;;;;;;;21.00;99.90;;;;;;5084216;28;19914;-78
2021/10/04 07:22:52;;;;;;;;;;;21.20;99.90;;;;;;5083781;28;19927;-78
2021/10/04 07:25:17;;;;;;;;;;;21.20;99.90;;;;;;5081290;28;19920;-77
2021/10/04 07:27:43;;;;;;;;;;;21.30;99.90;;;;;;5075947;28;19913;-78
2021/10/04 07:30:09;;;;;;;;;;;21.40;99.90;;;;;;5076557;28;19913;-78
2021/10/04 07:32:35;;;;;;;;;;;21.40;99.90;;;;;;5077312;28;19912;-78
2021/10/04 07:35:01;;;;;;;;;;;21.60;99.90;;;;;;5073978;28;20392;-78
2021/10/04 07:37:27;;;;;;;;;;;21.50;99.90;;;;;;5077219;28;19920;-78
2021/10/04 07:39:54;;;;;;;;;;;21.60;99.90;;;;;;5075907;28;19921;-78
2021/10/04 07:42:20;;;;;;;;;;;21.70;99.90;;;;;;5089828;28;19923;-78
2021/10/04 07:44:45;;;;;;;;;;;21.80;99.90;;;;;;5077525;28;19920;-78
2021/10/04 07:47:11;;;;;;;;;;;22.10;99.90;;;;;;5077952;28;19920;-79
2021/10/04 07:49:36;;;;;;;;;;;22.30;99.90;;;;;;5074840;28;19913;-79
2021/10/04 07:52:02;;;;;;;;;;;22.40;99.90;;;;;;5075525;28;19916;-78
2021/10/04 07:54:28;;;;;;;;;;;22.40;99.90;;;;;;5077377;28;19927;-78
2021/10/04 07:56:54;;;;;;;;;;;22.40;99.90;;;;;;5072565;28;19947;-78
2021/10/04 07:59:19;;;;;;;;;;;22.20;99.90;;;;;;5074107;28;19920;-78
2021/10/04 08:01:45;;;;;;;;;;;22.20;99.90;;;;;;5076434;28;19923;-78
2021/10/04 08:04:11;;;;;;;;;;;22.10;99.90;;;;;;5070345;28;19970;-78
2021/10/04 08:06:37;;;;;;;;;;;22.00;99.90;;;;;;5077251;28;19912;-78
2021/10/04 08:09:03;;;;;;;;;;;22.00;99.90;;;;;;5075927;28;20077;-78
2021/10/04 08:11:29;;;;;;;;;;;22.20;99.90;;;;;;5076210;28;20058;-78
2021/10/04 08:13:54;;;;;;;;;;;22.20;99.90;;;;;;5072916;28;19917;-78
2021/10/04 08:16:24;;;;;;;;;;;22.20;99.90;;;;;;5078674;28;19919;-78
2021/10/04 08:18:50;;;;;;;;;;;22.30;99.90;;;;;;5077210;28;19924;-78
2021/10/04 08:21:17;;;;;;;;;;;22.40;99.90;;;;;;5074033;28;19917;-78
2021/10/04 08:23:46;;;;;;;;;;;22.50;99.90;;;;;;5068539;28;19924;-78
2021/10/04 08:26:12;;;;;;;;;;;22.70;99.90;;;;;;5066283;28;19924;-78
2021/10/04 08:28:38;;;;;;;;;;;22.60;99.90;;;;;;5071298;28;19912;-77
2021/10/04 08:31:04;;;;;;;;;;;22.70;99.90;;;;;;5071499;28;20381;-76
2021/10/04 08:33:30;;;;;;;;;;;22.70;99.90;;;;;;5069349;28;20027;-77
2021/10/04 08:35:58;;;;;;;;;;;22.80;99.90;;;;;;5070643;28;19947;-76
2021/10/04 08:38:26;;;;;;;;;;;22.70;99.90;;;;;;5061381;28;19912;-76
2021/10/04 08:40:52;;;;;;;;;;;22.80;99.90;;;;;;5059713;28;19965;-76
2021/10/04 08:43:18;;;;;;;;;;;22.70;99.90;;;;;;5070474;28;20426;-76
2021/10/04 08:45:44;;;;;;;;;;;22.70;99.90;;;;;;5067270;28;19923;-76
2021/10/04 08:48:11;;;;;;;;;;;22.80;99.90;;;;;;5073747;28;19909;-75
2021/10/04 08:50:37;;;;;;;;;;;22.80;99.90;;;;;;5072155;28;19924;-76
2021/10/04 08:53:03;;;;;;;;;;;22.70;99.90;;;;;;5073807;28;19915;-75
2021/10/04 08:55:29;;;;;;;;;;;22.90;99.90;;;;;;5071939;28;20391;-76
2021/10/04 08:57:55;;;;;;;;;;;22.90;99.90;;;;;;5073564;28;19915;-76
2021/10/04 09:00:20;;;;;;;;;;;23.00;99.90;;;;;;5072751;28;19966;-76
2021/10/04 09:02:48;;;;;;;;;;;23.00;99.90;;;;;;5073812;28;20435;-76
2021/10/04 09:05:14;;;;;;;;;;;23.00;99.90;;;;;;5072338;28;19916;-76
2021/10/04 09:07:44;;;;;;;;;;;23.10;99.90;;;;;;5064149;28;20003;-76
2021/10/04 09:10:16;;;;;;;;;;;23.30;99.90;;;;;;5065073;28;19958;-76
2021/10/04 09:12:43;;;;;;;;;;;23.30;99.90;;;;;;5064220;28;19923;-76
2021/10/04 09:15:38;;;;;;;;;;;23.20;99.90;;;;;;5059619;28;19912;-76
2021/10/04 09:18:18;;;;;;;;;;;23.10;99.90;;;;;;5073156;28;19912;-75
2021/10/04 09:20:47;;;;;;;;;;;22.70;99.90;;;;;;5062110;28;20279;-79
2021/10/04 09:23:27;;;;;;;;;;;22.50;99.90;;;;;;5061816;28;20408;-78
2021/10/04 09:25:53;;;;;;;;;;;22.50;99.90;;;;;;5062550;28;20443;-77
2021/10/04 09:28:26;;;;;;;;;;;22.30;99.90;;;;;;5061696;28;20007;-78
2021/10/04 09:30:55;;;;;;;;;;;22.30;99.90;;;;;;5071349;28;20468;-76
2021/10/04 09:33:21;;;;;;;;;;;22.40;99.90;;;;;;5069602;28;19939;-76
2021/10/04 09:35:46;;;;;;;;;;;22.40;99.90;;;;;;5073567;28;20308;-77
2021/10/04 09:38:14;;;;;;;;;;;22.50;99.90;;;;;;5073267;28;19931;-76
2021/10/04 09:40:41;;;;;;;;;;;22.60;99.90;;;;;;5063537;28;19923;-77
2021/10/04 09:43:08;;;;;;;;;;;22.70;99.90;;;;;;5062946;28;20281;-77
2021/10/04 09:45:34;;;;;;;;;;;23.00;99.90;;;;;;5072279;28;20270;-78
2021/10/04 09:48:06;;;;;;;;;;;23.20;99.90;;;;;;5073882;28;19926;-79
2021/10/04 09:50:32;;;;;;;;;;;23.10;99.90;;;;;;5073018;28;20397;-79
2021/10/04 09:53:02;;;;;;;;;;;23.30;99.90;;;;;;5073404;28;19916;-76
2021/10/04 09:55:30;;;;;;;;;;;23.50;99.90;;;;;;5073540;28;19912;-76
2021/10/04 09:57:56;;;;;;;;;;;23.20;99.90;;;;;;5072851;28;20345;-79
2021/10/04 10:00:22;;;;;;;;;;;23.10;99.90;;;;;;5073462;28;19912;-76
2021/10/04 10:02:54;;;;;;;;;;;23.00;99.90;;;;;;5073635;28;19919;-76
2021/10/04 10:05:23;;;;;;;;;;;23.20;99.90;;;;;;5066704;28;19917;-76
2021/10/04 10:07:49;;;;;;;;;;;23.20;99.90;;;;;;5054955;28;20423;-78
2021/10/04 10:10:15;;;;;;;;;;;23.10;99.90;;;;;;5073230;28;19962;-77
2021/10/04 10:12:40;;;;;;;;;;;23.20;99.90;;;;;;5072275;28;19951;-78
2021/10/04 10:15:06;;;;;;;;;;;23.30;99.90;;;;;;5071728;28;19909;-76
2021/10/04 10:17:33;;;;;;;;;;;23.50;99.90;;;;;;5072979;28;19957;-76
2021/10/04 10:19:59;;;;;;;;;;;23.70;99.90;;;;;;5061343;28;19909;-79
2021/10/04 10:22:29;;;;;;;;;;;23.90;99.90;;;;;;5061665;28;19913;-76
2021/10/04 10:24:56;;;;;;;;;;;24.00;99.90;;;;;;5073245;28;19913;-77
2021/10/04 10:27:37;;;;;;;;;;;24.10;99.90;;;;;;5072791;28;19947;-79
2021/10/04 10:30:19;;;;;;;;;;;24.00;99.90;;;;;;5072506;28;19951;-77
2021/10/04 10:32:45;;;;;;;;;;;23.90;99.90;;;;;;5056874;28;19916;-76
2021/10/04 10:35:10;;;;;;;;;;;23.70;99.90;;;;;;5063196;28;19931;-78
2021/10/04 10:37:45;;;;;;;;;;;23.80;99.90;;;;;;5072319;28;20423;-79
2021/10/04 10:40:29;;;;;;;;;;;24.00;99.90;;;;;;5082147;28;19912;-79
2021/10/04 10:43:03;;;;;;;;;;;23.90;99.90;;;;;;5076423;28;19947;-77
2021/10/04 10:45:37;;;;;;;;;;;23.90;99.90;;;;;;5066145;28;20305;-75
2021/10/04 10:48:03;;;;;;;;;;;24.00;99.90;;;;;;5076060;28;19912;-74
2021/10/04 10:50:31;;;;;;;;;;;24.00;99.90;;;;;;5076459;28;19908;-74
2021/10/04 10:52:56;;;;;;;;;;;23.70;99.90;;;;;;5076495;28;20369;-76
2021/10/04 10:55:22;;;;;;;;;;;23.80;99.90;;;;;;5075670;28;19919;-74
2021/10/04 10:57:51;;;;;;;;;;;23.80;99.90;;;;;;5075052;28;19913;-74
2021/10/04 11:00:19;;;;;;;;;;;23.70;99.90;;;;;;5075585;28;19909;-75
2021/10/04 11:02:59;;;;;;;;;;;23.80;99.90;;;;;;5076672;28;19909;-74
2021/10/04 11:05:45;;;;;;;;;;;24.10;99.90;;;;;;5075386;28;20026;-74
2021/10/04 11:08:16;;;;;;;;;;;24.30;99.90;;;;;;5074031;28;20015;-74
2021/10/04 11:10:48;;;;;;;;;;;24.10;99.90;;;;;;5075916;28;19912;-74
2021/10/04 11:13:23;;;;;;;;;;;24.00;99.90;;;;;;5073753;28;19919;-74
2021/10/04 11:15:48;;;;;;;;;;;24.00;99.90;;;;;;5075250;28;20058;-73
2021/10/04 11:18:14;;;;;;;;;;;24.10;99.90;;;;;;5075611;28;19954;-76
2021/10/04 11:20:40;;;;;;;;;;;24.10;99.90;;;;;;5064932;28;19908;-76
2021/10/04 11:23:13;;;;;;;;;;;24.20;99.90;;;;;;5062751;28;20612;-75
2021/10/04 11:25:43;;;;;;;;;;;24.00;99.90;;;;;;5075289;28;20410;-77
2021/10/04 11:28:09;;;;;;;;;;;23.80;99.90;;;;;;5068604;28;20294;-76
2021/10/04 11:30:54;;;;;;;;;;;23.90;99.90;;;;;;5073389;28;20282;-76
2021/10/04 11:33:20;;;;;;;;;;;24.00;99.90;;;;;;5074305;28;19912;-75
2021/10/04 11:36:12;;;;;;;;;;;24.10;99.90;;;;;;5062655;28;19951;-77
2021/10/04 11:38:44;;;;;;;;;;;24.10;99.90;;;;;;5056176;28;20278;-76
2021/10/04 11:41:10;;;;;;;;;;;24.20;99.90;;;;;;5060033;28;19955;-76
2021/10/04 11:43:43;;;;;;;;;;;24.30;99.90;;;;;;5075205;28;19934;-76
2021/10/04 11:46:16;;;;;;;;;;;24.30;99.90;;;;;;5075053;28;19951;-76
2021/10/04 11:48:43;;;;;;;;;;;24.40;99.90;;;;;;5074152;28;19999;-76
2021/10/04 11:51:11;;;;;;;;;;;24.40;99.90;;;;;;5074674;28;19954;-76
2021/10/04 11:53:41;;;;;;;;;;;24.30;99.90;;;;;;5068735;28;19913;-75
2021/10/04 11:56:08;;;;;;;;;;;24.20;99.90;;;;;;5071178;28;19950;-75
2021/10/04 11:58:34;;;;;;;;;;;24.30;99.90;;;;;;5073522;28;19908;-76
2021/10/04 12:01:01;;;;;;;;;;;24.30;99.90;;;;;;5075624;28;19916;-77
2021/10/04 12:03:30;;;;;;;;;;;24.40;99.90;;;;;;5075750;28;19908;-76
2021/10/04 12:05:57;;;;;;;;;;;24.30;99.90;;;;;;5075370;28;19913;-77
2021/10/04 12:08:23;;;;;;;;;;;24.30;99.90;;;;;;5075059;28;19908;-76
2021/10/04 12:11:00;;;;;;;;;;;24.40;99.90;;;;;;5073414;28;19919;-76
2021/10/04 12:13:27;;;;;;;;;;;24.50;99.90;;;;;;5075228;28;20409;-78
2021/10/04 12:15:54;;;;;;;;;;;24.60;99.90;;;;;;5074824;28;19912;-76
2021/10/04 12:18:21;;;;;;;;;;;24.60;99.90;;;;;;5073294;28;20350;-77
2021/10/04 12:20:48;;;;;;;;;;;24.70;99.90;;;;;;5074592;28;20377;-76
2021/10/04 12:23:22;;;;;;;;;;;24.60;99.90;;;;;;5072644;28;19928;-76
2021/10/04 12:25:49;;;;;;;;;;;24.40;99.90;;;;;;5074453;28;20479;-75
2021/10/04 12:28:23;;;;;;;;;;;24.20;99.90;;;;;;5074632;28;19924;-77
2021/10/04 12:30:55;;;;;;;;;;;24.10;99.90;;;;;;5072428;28;19912;-75
2021/10/04 12:33:41;;;;;;;;;;;24.10;99.90;;;;;;5074233;28;19919;-76
2021/10/04 12:36:07;;;;;;;;;;;24.30;99.90;;;;;;5064901;28;19920;-77
2021/10/04 12:38:36;;;;;;;;;;;24.40;99.90;;;;;;5070820;28;20409;-75
2021/10/04 12:41:03;;;;;;;;;;;24.50;99.90;;;;;;5073156;28;19908;-75
2021/10/04 12:43:30;;;;;;;;;;;24.60;99.90;;;;;;5073881;28;20140;-75
2021/10/04 12:46:12;;;;;;;;;;;24.50;99.90;;;;;;5074248;28;19912;-76
2021/10/04 12:48:39;;;;;;;;;;;24.50;99.90;;;;;;5074706;28;20386;-76
2021/10/04 12:51:09;;;;;;;;;;;24.50;99.90;;;;;;5073891;28;19963;-76
2021/10/04 12:53:50;;;;;;;;;;;24.50;99.90;;;;;;5073023;28;19912;-75
2021/10/04 12:56:23;;;;;;;;;;;24.50;99.90;;;;;;5073583;28;19928;-76
2021/10/04 12:59:07;;;;;;;;;;;24.20;99.90;;;;;;5067656;28;19967;-76
2021/10/04 13:01:33;;;;;;;;;;;24.00;99.90;;;;;;5060283;28;20491;-75
2021/10/04 13:04:08;;;;;;;;;;;23.80;99.90;;;;;;5054288;28;20401;-76
2021/10/04 13:06:37;;;;;;;;;;;23.80;99.90;;;;;;5063267;28;20003;-78
2021/10/04 13:09:04;;;;;;;;;;;24.00;99.90;;;;;;5053519;28;19913;-75
2021/10/04 13:11:30;;;;;;;;;;;23.80;99.90;;;;;;5065665;28;19915;-76
2021/10/04 13:13:56;;;;;;;;;;;23.80;99.90;;;;;;5072577;28;19912;-76
2021/10/04 13:16:22;;;;;;;;;;;23.90;99.90;;;;;;5070465;28;19917;-76
2021/10/04 13:18:48;;;;;;;;;;;24.10;99.90;;;;;;5083041;28;19922;-75
2021/10/04 13:21:14;;;;;;;;;;;24.10;99.90;;;;;;5074219;28;20011;-75
2021/10/04 13:23:39;;;;;;;;;;;24.00;99.90;;;;;;5074043;28;19963;-76
2021/10/04 13:26:06;;;;;;;;;;;24.00;99.90;;;;;;5073957;28;19912;-77
2021/10/04 13:28:32;;;;;;;;;;;24.10;99.90;;;;;;5062439;28;19920;-79
2021/10/04 13:30:58;;;;;;;;;;;24.30;99.90;;;;;;5056309;28;19921;-76
2021/10/04 13:33:23;;;;;;;;;;;24.30;99.90;;;;;;5070370;28;19913;-74
2021/10/04 13:35:49;;;;;;;;;;;24.40;99.90;;;;;;5074216;28;19935;-76
2021/10/04 13:38:16;;;;;;;;;;;24.40;99.90;;;;;;5074495;28;19916;-75
2021/10/04 13:40:42;;;;;;;;;;;24.20;99.90;;;;;;5072385;28;20466;-78
2021/10/04 13:43:07;;;;;;;;;;;24.20;99.90;;;;;;5065208;28;19925;-76
2021/10/04 13:45:34;;;;;;;;;;;24.10;99.90;;;;;;5073191;28;20015;-75
2021/10/04 13:48:00;;;;;;;;;;;24.10;99.90;;;;;;5073752;28;19908;-76
2021/10/04 13:50:26;;;;;;;;;;;24.20;99.90;;;;;;5074025;28;20020;-75
2021/10/04 13:52:52;;;;;;;;;;;24.20;99.90;;;;;;5073457;28;19956;-76
2021/10/04 13:55:17;;;;;;;;;;;24.20;99.90;;;;;;5074179;28;20325;-77
2021/10/04 13:57:43;;;;;;;;;;;24.30;99.90;;;;;;5073019;28;19908;-78
2021/10/04 14:00:11;;;;;;;;;;;24.40;99.90;;;;;;5073021;28;19909;-76
2021/10/04 14:02:36;;;;;;;;;;;24.50;99.90;;;;;;5073645;28;19913;-75
2021/10/04 14:05:04;;;;;;;;;;;24.60;99.90;;;;;;5073281;28;19912;-75
2021/10/04 14:07:30;;;;;;;;;;;24.70;99.90;;;;;;5073965;28;19923;-79
2021/10/04 14:09:56;;;;;;;;;;;24.80;99.90;;;;;;5073522;28;19908;-77
2021/10/04 14:12:22;;;;;;;;;;;24.80;99.90;;;;;;5073400;28;20274;-78
2021/10/04 14:14:47;;;;;;;;;;;24.60;99.90;;;;;;5075334;28;19912;-75
2021/10/04 14:17:13;;;;;;;;;;;24.40;99.90;;;;;;5077365;28;19952;-76